Time;durP1;ratioP1;P1;durP2;ratioP2;P2;SDS_P1;SDS_P2;PMS_P1;PMS_P2;Temp;Humidity;BMP_temperature;BMP_pressure;BME280_temperature;BME280_humidity;BME280_pressure;Samples;Min_cycle;Max_cycle;Signal;HPM_P1;HPM_P2
2023/08/14 00:00:17;;;;;;;2.40;1.85;;;;;;;28.57;50.08;98848.56;2080482;28;20048;-50
2023/08/14 00:01:19;;;;;;;2.92;1.58;;;;;;;28.57;50.27;98850.47;2082103;28;20063;-49
2023/08/14 00:02:22;;;;;;;4.97;2.13;;;;;;;28.58;49.90;98847.47;2079038;28;20107;-49
2023/08/14 00:03:24;;;;;;;4.25;2.35;;;;;;;28.63;49.92;98852.13;2080042;28;20579;-49
2023/08/14 00:04:24;;;;;;;3.08;1.80;;;;;;;28.60;50.18;98845.31;2081907;28;21374;-51
2023/08/14 00:05:28;;;;;;;4.80;1.92;;;;;;;28.60;50.09;98842.56;2081261;28;20504;-52
2023/08/14 00:06:28;;;;;;;2.30;1.77;;;;;;;28.59;50.28;98843.66;2080262;28;20052;-49
2023/08/14 00:07:30;;;;;;;5.45;2.40;;;;;;;28.59;50.55;98846.41;2082374;28;20159;-49
2023/08/14 00:08:31;;;;;;;3.15;2.20;;;;;;;28.60;50.48;98845.31;2074336;28;20046;-50
2023/08/14 00:09:34;;;;;;;3.95;2.20;;;;;;;28.62;50.48;98848.59;2072915;28;20065;-53
2023/08/14 00:10:34;;;;;;;6.00;2.00;;;;;;;28.59;50.15;98846.41;2072784;28;20488;-51
2023/08/14 00:11:36;;;;;;;7.78;2.15;;;;;;;28.60;50.20;98842.56;2070447;28;20122;-50
2023/08/14 00:12:37;;;;;;;3.55;2.13;;;;;;;28.58;50.33;98847.47;2080765;28;20625;-50
2023/08/14 00:13:51;;;;;;;3.83;1.95;;;;;;;28.58;50.03;98841.19;2081895;28;20136;-50
2023/08/14 00:14:52;;;;;;;2.13;1.48;;;;;;;28.55;50.64;98847.19;2081645;28;20053;-50
2023/08/14 00:15:54;;;;;;;5.60;2.25;;;;;;;28.58;49.91;98847.47;2081812;28;20410;-48
2023/08/14 00:16:55;;;;;;;5.05;2.10;;;;;;;28.58;49.89;98843.91;2081232;28;20099;-51
2023/08/14 00:17:56;;;;;;;3.70;1.83;;;;;;;28.59;50.89;98846.41;2081042;28;20053;-49
2023/08/14 00:18:58;;;;;;;3.00;2.22;;;;;;;28.61;49.94;98846.97;2081969;28;20667;-49
2023/08/14 00:19:59;;;;;;;4.50;2.55;;;;;;;28.57;50.05;98848.56;2075671;28;20049;-49
2023/08/14 00:21:02;;;;;;;2.58;1.58;;;;;;;28.58;50.45;98855.66;2083031;28;20049;-50
2023/08/14 00:22:03;;;;;;;4.28;1.88;;;;;;;28.59;49.98;98851.03;2082320;28;20115;-50
2023/08/14 00:23:05;;;;;;;2.78;2.10;;;;;;;28.59;50.16;98854.59;2082392;28;20045;-48
2023/08/14 00:24:06;;;;;;;3.05;1.50;;;;;;;28.57;50.56;98845.84;2080639;28;20580;-49
2023/08/14 00:25:10;;;;;;;2.75;1.92;;;;;;;28.57;50.27;98851.28;2077492;28;20500;-49
2023/08/14 00:26:11;;;;;;;6.47;2.50;;;;;;;28.57;51.34;98847.75;2076071;28;20382;-51
2023/08/14 00:27:13;;;;;;;2.95;1.70;;;;;;;28.59;50.30;98854.59;2078866;28;20063;-49
2023/08/14 00:28:14;;;;;;;3.08;1.90;;;;;;;28.59;50.32;98845.56;2079123;28;20045;-49
2023/08/14 00:29:16;;;;;;;2.80;2.38;;;;;;;28.60;50.19;98855.41;2084222;28;20051;-52
2023/08/14 00:30:17;;;;;;;4.93;1.92;;;;;;;28.58;50.94;98847.47;2082455;28;20417;-52
2023/08/14 00:31:18;;;;;;;2.75;1.67;;;;;;;28.57;50.41;98843.09;2082016;28;20049;-53
2023/08/14 00:32:19;;;;;;;4.70;1.80;;;;;;;28.56;50.85;98846.94;2081453;28;20526;-49
2023/08/14 00:33:21;;;;;;;4.45;2.45;;;;;;;28.57;50.75;98848.56;2082458;28;20049;-49
2023/08/14 00:34:22;;;;;;;2.83;2.08;;;;;;;28.56;51.51;98838.75;2082322;28;20521;-51
2023/08/14 00:35:24;;;;;;;6.95;3.03;;;;;;;28.55;50.71;98837.09;2083059;28;20051;-48
2023/08/14 00:36:26;;;;;;;4.38;2.10;;;;;;;28.56;51.17;98841.47;2083039;28;20079;-53
2023/08/14 00:37:39;;;;;;;2.50;2.30;;;;;;;28.55;50.81;98842.53;2084084;28;20053;-49
2023/08/14 00:38:41;;;;;;;4.85;2.08;;;;;;;28.57;51.35;98843.09;2080505;28;20041;-50
2023/08/14 00:39:42;;;;;;;7.15;2.20;;;;;;;28.57;51.40;98845.84;2080253;28;20322;-49
2023/08/14 00:40:44;;;;;;;2.47;1.73;;;;;;;28.56;51.52;98848.84;2081929;28;20055;-48
2023/08/14 00:41:45;;;;;;;7.55;2.50;;;;;;;28.56;51.52;98844.19;2080005;28;20512;-48
2023/08/14 00:42:47;;;;;;;4.20;1.75;;;;;;;28.58;51.45;98846.66;2082507;28;22424;-53
2023/08/14 00:43:48;;;;;;;4.55;1.63;;;;;;;28.57;51.07;98836.84;2082632;28;20994;-52
2023/08/14 00:44:49;;;;;;;3.50;2.40;;;;;;;28.55;51.23;98837.09;2079452;28;20056;-49
2023/08/14 00:45:55;;;;;;;4.75;2.42;;;;;;;28.53;51.05;98836.53;2083325;28;20059;-52
2023/08/14 00:46:56;;;;;;;2.33;1.70;;;;;;;28.51;51.24;98841.44;2081374;28;20401;-48
2023/08/14 00:47:58;;;;;;;2.28;1.45;;;;;;;28.50;51.40;98840.63;2083039;28;20504;-48
2023/08/14 00:48:59;;;;;;;5.75;2.05;;;;;;;28.49;51.40;98838.13;2083197;28;20061;-48
2023/08/14 00:50:01;;;;;;;6.00;1.50;;;;;;;28.57;50.71;98836.84;2083459;28;20048;-54
2023/08/14 00:51:03;;;;;;;2.90;1.92;;;;;;;28.55;50.99;98845.25;2080241;28;20128;-48
2023/08/14 00:52:07;;;;;;;4.95;2.38;;;;;;;28.53;51.17;98844.72;2081692;28;20098;-48
2023/08/14 00:53:09;;;;;;;2.67;1.88;;;;;;;28.55;51.10;98837.09;2078717;28;20049;-49
2023/08/14 00:54:11;;;;;;;2.53;1.65;;;;;;;28.57;51.25;98843.09;2081231;28;20580;-52
2023/08/14 00:55:17;;;;;;;2.67;1.90;;;;;;;28.56;51.35;98838.75;2079798;28;20073;-48
2023/08/14 00:56:20;;;;;;;6.70;2.72;;;;;;;28.52;51.41;98843.06;2082212;28;20075;-48
2023/08/14 00:57:21;;;;;;;2.35;1.83;;;;;;;28.55;51.84;98839.00;2081572;28;20427;-52
2023/08/14 00:58:24;;;;;;;2.85;1.77;;;;;;;28.58;51.35;98838.47;2082983;28;20053;-49
2023/08/14 00:59:24;;;;;;;3.75;2.00;;;;;;;28.57;52.06;98834.91;2082472;28;20243;-51
2023/08/14 01:00:28;;;;;;;4.60;2.63;;;;;;;28.56;51.13;98840.66;2081438;28;20045;-50
2023/08/14 01:01:29;;;;;;;2.03;1.80;;;;;;;28.51;50.62;98838.72;2084115;28;20045;-53
2023/08/14 01:02:31;;;;;;;5.90;1.90;;;;;;;28.51;51.33;98839.53;2084027;28;20051;-48
2023/08/14 01:03:34;;;;;;;4.63;1.75;;;;;;;28.52;51.44;98837.59;2081265;28;20083;-49
2023/08/14 01:04:36;;;;;;;2.60;1.77;;;;;;;28.51;51.46;98839.53;2084425;28;20045;-51
2023/08/14 01:05:37;;;;;;;3.95;2.15;;;;;;;28.55;51.37;98836.25;2081978;28;20080;-49
2023/08/14 01:06:39;;;;;;;3.65;2.63;;;;;;;28.55;51.02;98836.25;2082407;28;20511;-48
2023/08/14 01:07:41;;;;;;;4.22;2.40;;;;;;;28.54;50.89;98826.44;2083335;28;20049;-48
2023/08/14 01:08:44;;;;;;;2.20;1.42;;;;;;;28.51;50.54;98834.06;2082882;28;20491;-48
2023/08/14 01:09:46;;;;;;;2.38;1.52;;;;;;;28.51;50.60;98831.34;2083329;28;20059;-49
2023/08/14 01:10:58;;;;;;;2.65;2.17;;;;;;;28.54;50.86;98830.00;2076715;28;20336;-51
2023/08/14 01:12:07;;;;;;;4.45;1.83;;;;;;;28.52;50.86;98834.88;2079128;28;20114;-51
2023/08/14 01:13:18;;;;;;;2.40;2.03;;;;;;;28.55;50.82;98836.25;2082339;28;20473;-50
2023/08/14 01:14:25;;;;;;;3.97;2.67;;;;;;;28.56;51.07;98838.75;2081871;28;20509;-51
2023/08/14 01:15:31;;;;;;;2.55;1.65;;;;;;;28.56;51.20;98833.28;2078770;28;20057;-50
2023/08/14 01:16:37;;;;;;;3.10;1.90;;;;;;;28.54;51.33;98830.00;2071003;28;20182;-53
2023/08/14 01:17:44;;;;;;;4.90;2.10;;;;;;;28.55;51.58;98839.81;2076303;28;20522;-51
2023/08/14 01:18:47;;;;;;;3.33;2.25;;;;;;;28.55;51.72;98834.34;2075326;28;20492;-48
2023/08/14 01:19:51;;;;;;;3.85;2.38;;;;;;;28.56;51.81;98836.00;2076198;28;20050;-50
2023/08/14 01:21:09;;;;;;;3.10;2.22;;;;;;;28.55;51.87;98837.09;2075107;28;20164;-49
2023/08/14 01:22:17;;;;;;;1.95;1.55;;;;;;;28.50;51.10;98826.97;2074858;28;20053;-49
2023/08/14 01:23:25;;;;;;;3.20;1.65;;;;;;;28.52;50.78;98837.59;2071968;28;20527;-49
2023/08/14 01:24:39;;;;;;;3.97;1.83;;;;;;;28.50;51.18;98826.97;2074298;28;20508;-49
2023/08/14 01:25:42;;;;;;;4.50;2.20;;;;;;;28.51;51.37;98830.53;2075111;28;20496;-49
2023/08/14 01:26:45;;;;;;;4.30;2.38;;;;;;;28.55;51.76;98823.44;2075138;28;20106;-49
2023/08/14 01:27:46;;;;;;;3.67;2.15;;;;;;;28.52;52.58;98829.44;2075125;28;20053;-48
2023/08/14 01:28:49;;;;;;;2.20;2.00;;;;;;;28.50;52.51;98821.53;2071937;28;20067;-49
2023/08/14 01:29:57;;;;;;;4.60;2.25;;;;;;;28.49;52.31;98816.31;2074940;28;20065;-50
2023/08/14 01:30:58;;;;;;;5.50;1.90;;;;;;;28.48;52.63;98823.69;2076786;28;20144;-48
2023/08/14 01:31:59;;;;;;;3.58;2.10;;;;;;;28.48;52.54;98823.69;2079330;28;20480;-54
2023/08/14 01:33:00;;;;;;;4.20;2.10;;;;;;;28.47;52.30;98816.59;2078423;28;20390;-50
2023/08/14 01:34:02;;;;;;;3.95;2.13;;;;;;;28.48;52.80;98820.94;2082277;28;20079;-48
2023/08/14 01:35:04;;;;;;;6.03;2.42;;;;;;;28.49;53.45;98822.59;2082608;28;20041;-48
2023/08/14 01:36:13;;;;;;;4.53;2.53;;;;;;;28.45;53.10;98823.41;2084097;28;20045;-49
2023/08/14 01:37:21;;;;;;;4.47;2.47;;;;;;;28.44;53.25;98821.75;2083861;28;20774;-53
2023/08/14 01:38:30;;;;;;;3.85;2.60;;;;;;;28.41;53.52;98825.78;2075286;28;20589;-50
2023/08/14 01:39:40;;;;;;;5.70;2.47;;;;;;;28.41;53.36;98824.97;2072939;28;20060;-52
2023/08/14 01:40:49;;;;;;;2.38;1.75;;;;;;;28.41;53.71;98824.97;2082733;28;20120;-50
2023/08/14 01:41:59;;;;;;;3.35;1.95;;;;;;;28.37;52.45;98824.69;2076749;28;20041;-49
2023/08/14 01:43:05;;;;;;;5.07;1.83;;;;;;;28.37;52.36;98821.13;2074103;28;20038;-48
2023/08/14 01:44:08;;;;;;;4.05;2.00;;;;;;;28.37;52.25;98826.59;2078359;28;20072;-48
2023/08/14 01:45:16;;;;;;;2.53;1.92;;;;;;;28.36;52.14;98820.31;2081004;28;20041;-52
2023/08/14 01:46:18;;;;;;;2.97;1.77;;;;;;;28.39;51.80;98824.41;2079695;28;20045;-50
2023/08/14 01:47:21;;;;;;;2.72;1.80;;;;;;;28.39;51.97;98824.41;2081409;28;20114;-52
2023/08/14 01:48:23;;;;;;;5.18;1.90;;;;;;;28.38;52.47;98820.03;2082694;28;20080;-51
2023/08/14 01:49:29;;;;;;;2.60;1.80;;;;;;;28.44;52.26;98824.47;2074649;28;20054;-49
2023/08/14 01:50:30;;;;;;;3.17;2.03;;;;;;;28.42;52.65;98822.03;2073582;28;20073;-51
2023/08/14 01:51:33;;;;;;;3.05;2.28;;;;;;;28.43;52.18;98828.28;2072761;28;20080;-57
2023/08/14 01:52:34;;;;;;;2.25;1.60;;;;;;;28.44;51.96;98821.75;2075098;28;20077;-49
2023/08/14 01:53:37;;;;;;;1.58;1.42;;;;;;;28.43;51.27;98822.84;2072994;28;20076;-50
2023/08/14 01:54:38;;;;;;;2.20;2.00;;;;;;;28.46;51.95;98822.31;2074903;28;20060;-48
2023/08/14 01:55:39;;;;;;;2.47;1.70;;;;;;;28.45;51.79;98821.50;2074211;28;20417;-49
2023/08/14 01:56:42;;;;;;;2.85;1.95;;;;;;;28.46;51.82;98817.66;2074725;28;20579;-51
2023/08/14 01:57:44;;;;;;;2.13;1.92;;;;;;;28.47;51.87;98821.19;2073334;28;20056;-49
2023/08/14 01:58:44;;;;;;;3.88;2.08;;;;;;;28.45;51.90;98816.03;2074770;28;20049;-49
2023/08/14 01:59:48;;;;;;;2.90;2.08;;;;;;;28.42;52.02;98826.63;2073961;28;20439;-50
2023/08/14 02:00:49;;;;;;;4.07;2.08;;;;;;;28.41;52.04;98819.50;2076621;28;20050;-49
2023/08/14 02:01:50;;;;;;;2.83;2.08;;;;;;;28.42;51.32;98827.47;2068625;28;20135;-50
2023/08/14 02:02:52;;;;;;;1.92;1.67;;;;;;;28.41;50.99;98822.22;2073605;28;20057;-50
2023/08/14 02:03:53;;;;;;;2.40;1.90;;;;;;;28.42;51.16;98823.91;2072726;28;20048;-50
2023/08/14 02:04:55;;;;;;;4.47;1.90;;;;;;;28.41;52.07;98828.50;2074425;28;20049;-49
2023/08/14 02:05:56;;;;;;;4.55;1.85;;;;;;;28.44;52.11;98819.00;2072724;28;20049;-50
2023/08/14 02:06:58;;;;;;;5.57;1.92;;;;;;;28.44;52.27;98827.19;2073639;28;20041;-51
2023/08/14 02:07:59;;;;;;;2.60;2.00;;;;;;;28.43;52.07;98823.66;2074918;28;20064;-51
2023/08/14 02:09:00;;;;;;;3.45;2.28;;;;;;;28.44;52.05;98814.38;2073206;28;20046;-50
2023/08/14 02:10:02;;;;;;;2.17;1.83;;;;;;;28.42;52.88;98816.56;2073553;28;20068;-52
2023/08/14 02:11:07;;;;;;;2.53;1.92;;;;;;;28.40;52.64;98815.97;2075125;28;20421;-52
2023/08/14 02:12:09;;;;;;;4.20;2.13;;;;;;;28.39;52.09;98816.22;2075097;28;20217;-48
2023/08/14 02:13:11;;;;;;;2.13;1.73;;;;;;;28.38;52.07;98811.84;2076256;28;20411;-51
2023/08/14 02:14:12;;;;;;;5.47;2.50;;;;;;;28.35;52.44;98810.47;2073018;28;20683;-50
2023/08/14 02:15:14;;;;;;;2.72;2.10;;;;;;;28.38;52.20;98806.41;2078307;28;20038;-49
2023/08/14 02:16:14;;;;;;;4.95;1.77;;;;;;;28.35;52.40;98806.94;2083484;28;20075;-48
2023/08/14 02:17:16;;;;;;;4.13;1.95;;;;;;;28.33;51.50;98796.28;2082010;28;20052;-49
2023/08/14 02:18:17;;;;;;;2.28;1.75;;;;;;;28.35;52.82;98804.19;2079300;28;20079;-51
2023/08/14 02:19:19;;;;;;;3.97;2.55;;;;;;;28.39;53.53;98805.31;2080396;28;20410;-51
2023/08/14 02:20:20;;;;;;;2.42;2.15;;;;;;;28.40;52.74;98801.50;2081904;28;20045;-50
2023/08/14 02:21:21;;;;;;;4.97;2.78;;;;;;;28.38;53.40;98799.03;2080562;28;20052;-48
2023/08/14 02:22:22;;;;;;;3.28;2.35;;;;;;;28.37;53.57;98807.50;2081442;28;20045;-49
2023/08/14 02:23:23;;;;;;;3.63;2.47;;;;;;;28.38;53.00;98800.94;2080384;28;20091;-48
2023/08/14 02:24:25;;;;;;;3.65;1.70;;;;;;;28.39;52.54;98805.31;2083086;28;20040;-47
2023/08/14 02:25:26;;;;;;;2.92;2.33;;;;;;;28.41;52.67;98805.88;2073007;28;20042;-49
2023/08/14 02:26:27;;;;;;;3.40;2.10;;;;;;;28.41;52.57;98808.59;2072748;28;20045;-50
2023/08/14 02:27:30;;;;;;;2.28;1.80;;;;;;;28.41;52.56;98801.22;2078705;28;20045;-49
2023/08/14 02:28:30;;;;;;;2.17;1.92;;;;;;;28.39;52.19;98799.84;2074545;28;20157;-50
2023/08/14 02:29:32;;;;;;;5.57;2.13;;;;;;;28.40;52.40;98801.50;2082061;28;22084;-55
2023/08/14 02:30:35;;;;;;;5.20;1.90;;;;;;;28.41;52.21;98803.13;2083191;28;20069;-50
2023/08/14 02:31:37;;;;;;;2.50;1.88;;;;;;;28.43;52.18;98804.56;2080216;28;20096;-47
2023/08/14 02:32:38;;;;;;;2.20;2.00;;;;;;;28.44;51.48;98802.63;2082543;28;20083;-48
2023/08/14 02:33:40;;;;;;;2.95;2.08;;;;;;;28.44;51.60;98799.91;2080529;28;20453;-47
2023/08/14 02:34:46;;;;;;;2.67;2.30;;;;;;;28.43;52.23;98801.81;2080226;28;20061;-49
2023/08/14 02:35:48;;;;;;;2.88;2.00;;;;;;;28.42;52.77;98804.81;2080603;28;20052;-48
2023/08/14 02:36:49;;;;;;;2.30;2.00;;;;;;;28.41;52.38;98800.41;2070965;28;20049;-49
2023/08/14 02:37:51;;;;;;;2.70;1.70;;;;;;;28.39;52.23;98806.16;2080707;28;20492;-49
2023/08/14 02:38:53;;;;;;;2.25;1.77;;;;;;;28.39;52.34;98808.88;2080842;28;20046;-50
2023/08/14 02:39:55;;;;;;;4.28;2.15;;;;;;;28.44;52.40;98802.63;2080182;28;20045;-50
2023/08/14 02:40:56;;;;;;;3.08;2.28;;;;;;;28.43;52.99;98806.47;2080586;28;20479;-49
2023/08/14 02:41:58;;;;;;;6.65;1.98;;;;;;;28.42;52.39;98804.81;2079604;28;20064;-49
2023/08/14 02:43:01;;;;;;;3.70;2.15;;;;;;;28.41;52.51;98798.50;2080899;28;20444;-50
2023/08/14 02:44:03;;;;;;;2.20;1.85;;;;;;;28.41;52.52;98800.41;2079277;28;20373;-47
2023/08/14 02:45:05;;;;;;;3.42;1.77;;;;;;;28.39;51.42;98800.69;2080095;28;20464;-47
2023/08/14 02:46:07;;;;;;;2.47;1.75;;;;;;;28.36;52.15;98800.38;2077535;28;20052;-49
2023/08/14 02:47:08;;;;;;;4.75;2.13;;;;;;;28.34;53.13;98792.47;2077958;28;20049;-49
2023/08/14 02:48:10;;;;;;;1.63;1.52;;;;;;;28.35;52.32;98794.09;2080455;28;20582;-48
2023/08/14 02:49:11;;;;;;;4.80;2.05;;;;;;;28.37;52.70;98796.59;2079957;28;20135;-48
2023/08/14 02:50:12;;;;;;;3.00;2.00;;;;;;;28.39;52.93;98799.84;2073454;28;20140;-51
2023/08/14 02:51:15;;;;;;;3.92;2.13;;;;;;;28.38;52.28;98792.75;2072546;28;20045;-49
2023/08/14 02:52:16;;;;;;;2.63;1.83;;;;;;;28.41;52.26;98797.69;2069675;28;20522;-48
2023/08/14 02:53:17;;;;;;;4.50;1.92;;;;;;;28.40;52.34;98798.78;2072719;28;20051;-49
2023/08/14 02:54:18;;;;;;;2.63;1.98;;;;;;;28.36;52.58;98795.78;2076643;28;20052;-49
2023/08/14 02:55:20;;;;;;;3.20;2.13;;;;;;;28.37;52.52;98796.59;2080917;28;20053;-49
2023/08/14 02:56:21;;;;;;;8.73;3.95;;;;;;;28.38;52.95;98798.22;2080717;28;20095;-49
2023/08/14 02:57:22;;;;;;;2.72;1.95;;;;;;;28.38;52.52;98803.66;2073278;28;20085;-49
2023/08/14 02:58:25;;;;;;;4.72;2.20;;;;;;;28.42;52.56;98804.81;2080187;28;20498;-50
2023/08/14 02:59:27;;;;;;;2.00;1.65;;;;;;;28.40;52.84;98801.50;2075726;28;20163;-48
2023/08/14 03:00:28;;;;;;;2.85;2.00;;;;;;;28.40;51.93;98807.78;2076983;28;20045;-50
2023/08/14 03:01:31;;;;;;;1.58;1.42;;;;;;;28.40;53.01;98799.59;2081427;28;20839;-51
2023/08/14 03:02:34;;;;;;;2.10;1.88;;;;;;;28.39;52.53;98802.56;2078808;28;20045;-50
2023/08/14 03:03:35;;;;;;;5.35;2.10;;;;;;;28.39;52.78;98799.84;2081292;28;20128;-48
2023/08/14 03:04:36;;;;;;;2.88;1.75;;;;;;;28.35;53.66;98804.19;2071562;28;20422;-50
2023/08/14 03:05:38;;;;;;;4.05;2.33;;;;;;;28.38;53.20;98798.22;2071856;28;20053;-48
2023/08/14 03:06:39;;;;;;;4.25;2.13;;;;;;;28.40;52.96;98798.78;2073145;28;22601;-48
2023/08/14 03:07:41;;;;;;;1.65;1.55;;;;;;;28.37;53.11;98799.31;2072961;28;20068;-48
2023/08/14 03:08:41;;;;;;;1.90;1.80;;;;;;;28.40;53.03;98798.78;2062659;28;20538;-49
2023/08/14 03:09:43;;;;;;;4.93;2.28;;;;;;;28.40;53.09;98801.50;2072517;28;20049;-48
2023/08/14 03:10:44;;;;;;;3.47;2.55;;;;;;;28.36;53.57;98800.38;2072350;28;20050;-47
2023/08/14 03:11:46;;;;;;;2.15;1.85;;;;;;;28.33;53.58;98804.44;2072944;28;20053;-47
2023/08/14 03:12:47;;;;;;;5.38;2.45;;;;;;;28.33;53.45;98800.91;2075315;28;20057;-51
2023/08/14 03:13:50;;;;;;;3.00;1.83;;;;;;;28.35;53.01;98798.75;2072695;28;20049;-50
2023/08/14 03:14:52;;;;;;;4.25;1.95;;;;;;;28.34;53.30;98792.47;2073042;28;20973;-48
2023/08/14 03:15:54;;;;;;;3.15;1.77;;;;;;;28.34;52.33;98797.13;2073104;28;20049;-48
2023/08/14 03:16:55;;;;;;;3.38;2.03;;;;;;;28.35;53.19;98796.03;2072809;28;20057;-50
2023/08/14 03:17:57;;;;;;;3.65;1.90;;;;;;;28.35;53.36;98791.38;2073319;28;20049;-48
2023/08/14 03:18:57;;;;;;;3.33;2.10;;;;;;;28.33;53.48;98799.00;2074599;28;20069;-48
2023/08/14 03:19:59;;;;;;;4.13;1.63;;;;;;;28.37;53.11;98796.59;2073320;28;20084;-48
2023/08/14 03:21:00;;;;;;;4.72;1.88;;;;;;;28.33;53.52;98800.91;2072584;28;20052;-49
2023/08/14 03:22:02;;;;;;;5.55;2.13;;;;;;;28.31;53.81;98797.66;2077741;28;20052;-48
2023/08/14 03:23:03;;;;;;;5.65;2.20;;;;;;;28.30;53.21;98796.81;2082574;28;20127;-48
2023/08/14 03:24:04;;;;;;;5.47;2.55;;;;;;;28.28;52.75;98794.34;2078974;28;20069;-48
2023/08/14 03:25:07;;;;;;;3.60;2.70;;;;;;;28.34;53.00;98806.13;2075550;28;20063;-48
2023/08/14 03:26:08;;;;;;;2.42;2.03;;;;;;;28.27;53.74;98798.16;2081108;28;20049;-49
2023/08/14 03:27:09;;;;;;;3.45;2.08;;;;;;;28.26;53.08;98801.97;2081986;28;20114;-51
2023/08/14 03:28:11;;;;;;;3.90;2.60;;;;;;;28.28;53.81;98797.06;2080258;28;20564;-50
2023/08/14 03:29:13;;;;;;;3.15;2.10;;;;;;;28.29;52.97;98804.16;2080472;28;20542;-49
2023/08/14 03:30:15;;;;;;;1.65;1.45;;;;;;;28.28;53.20;98799.81;2082825;28;20053;-50
2023/08/14 03:31:16;;;;;;;3.63;2.13;;;;;;;28.27;54.16;98800.88;2081883;28;20869;-50
2023/08/14 03:32:18;;;;;;;3.58;1.83;;;;;;;28.22;54.45;98803.59;2081787;28;20123;-48
2023/08/14 03:33:19;;;;;;;2.33;1.90;;;;;;;28.24;54.49;98804.13;2081313;28;20331;-52
2023/08/14 03:34:20;;;;;;;3.65;2.38;;;;;;;28.31;54.14;98808.56;2081246;28;20056;-50
2023/08/14 03:35:21;;;;;;;3.90;2.35;;;;;;;28.28;54.34;98807.19;2082788;28;20060;-49
2023/08/14 03:36:23;;;;;;;3.33;1.98;;;;;;;28.23;53.40;98807.94;2081081;28;20063;-50
2023/08/14 03:37:24;;;;;;;2.28;2.00;;;;;;;28.34;53.92;98808.03;2081181;28;20097;-48
2023/08/14 03:38:25;;;;;;;3.45;2.17;;;;;;;28.26;53.75;98810.16;2081465;28;20679;-48
2023/08/14 03:39:26;;;;;;;3.13;1.80;;;;;;;28.23;53.38;98807.94;2082140;28;20048;-49
2023/08/14 03:40:28;;;;;;;6.93;2.08;;;;;;;28.20;53.77;98811.22;2080355;28;20136;-51
2023/08/14 03:41:29;;;;;;;3.80;2.22;;;;;;;28.21;54.32;98806.56;2078839;28;20041;-49
2023/08/14 03:42:31;;;;;;;3.33;2.00;;;;;;;28.25;53.81;98810.41;2079750;28;20710;-52
2023/08/14 03:43:32;;;;;;;3.00;1.90;;;;;;;28.27;53.60;98806.31;2080545;28;20053;-55
2023/08/14 03:44:35;;;;;;;3.20;1.88;;;;;;;28.29;53.72;98806.91;2080175;28;20076;-50
2023/08/14 03:45:36;;;;;;;3.70;2.28;;;;;;;28.25;54.19;98808.53;2078918;28;20053;-48
2023/08/14 03:46:37;;;;;;;4.82;2.45;;;;;;;28.22;53.84;98802.75;2080805;28;20056;-49
2023/08/14 03:47:39;;;;;;;3.63;2.45;;;;;;;28.21;54.04;98812.84;2077943;28;20419;-48
2023/08/14 03:48:39;;;;;;;5.22;2.08;;;;;;;28.20;54.61;98815.84;2081488;28;20047;-48
2023/08/14 03:49:41;;;;;;;6.55;2.13;;;;;;;28.19;54.33;98809.53;2081206;28;20060;-48
2023/08/14 03:50:45;;;;;;;3.65;1.90;;;;;;;28.21;54.61;98807.38;2081130;28;20531;-47
2023/08/14 03:51:47;;;;;;;3.20;2.25;;;;;;;28.18;54.51;98813.38;2078851;28;20046;-49
2023/08/14 03:52:48;;;;;;;3.70;2.50;;;;;;;28.20;54.51;98808.47;2082693;28;20048;-48
2023/08/14 03:53:50;;;;;;;3.03;1.73;;;;;;;28.22;54.30;98809.06;2079673;28;20054;-47
2023/08/14 03:54:51;;;;;;;5.50;2.15;;;;;;;28.23;53.89;98809.88;2078456;28;22467;-48
2023/08/14 03:55:53;;;;;;;3.33;2.10;;;;;;;28.26;53.79;98815.59;2081406;28;20056;-51
2023/08/14 03:56:54;;;;;;;4.40;2.17;;;;;;;28.24;53.36;98817.75;2082113;28;20516;-50
2023/08/14 03:57:57;;;;;;;2.88;1.63;;;;;;;28.21;53.42;98815.56;2081567;28;20057;-48
2023/08/14 03:58:59;;;;;;;3.97;2.50;;;;;;;28.19;53.75;98817.72;2083603;28;20044;-47
2023/08/14 04:00:01;;;;;;;2.80;2.03;;;;;;;28.19;54.00;98816.91;2081806;28;20045;-49
2023/08/14 04:01:03;;;;;;;7.38;1.98;;;;;;;28.23;53.88;98818.88;2082315;28;20533;-51
2023/08/14 04:02:04;;;;;;;4.38;2.00;;;;;;;28.22;53.66;98821.84;2080396;28;20045;-49
2023/08/14 04:03:06;;;;;;;4.47;2.88;;;;;;;28.26;54.10;98820.25;2081934;28;20037;-48
2023/08/14 04:04:06;;;;;;;2.92;1.98;;;;;;;28.26;53.77;98812.88;2080872;28;20220;-48
2023/08/14 04:05:08;;;;;;;2.95;1.90;;;;;;;28.23;53.46;98818.88;2081954;28;20535;-48
2023/08/14 04:06:10;;;;;;;6.78;2.85;;;;;;;28.22;53.35;98816.38;2083067;28;20188;-48
2023/08/14 04:07:10;;;;;;;4.45;2.40;;;;;;;28.21;53.82;98820.19;2083345;28;20510;-48
2023/08/14 04:08:14;;;;;;;5.47;2.75;;;;;;;28.18;53.76;98816.09;2080792;28;20044;-48
2023/08/14 04:09:14;;;;;;;4.32;2.25;;;;;;;28.13;54.37;98812.50;2082592;28;20129;-49
2023/08/14 04:10:16;;;;;;;3.92;2.95;;;;;;;28.16;53.97;98823.72;2082279;28;20537;-48
2023/08/14 04:11:18;;;;;;;3.22;1.85;;;;;;;28.19;53.40;98820.44;2082889;28;20069;-47
2023/08/14 04:12:20;;;;;;;3.97;2.58;;;;;;;28.22;53.47;98819.13;2081453;28;20045;-50
2023/08/14 04:13:21;;;;;;;3.20;2.33;;;;;;;28.25;53.40;98819.44;2083328;28;21361;-50
2023/08/14 04:14:24;;;;;;;3.28;2.38;;;;;;;28.26;54.12;98814.78;2083510;28;20151;-50
2023/08/14 04:15:26;;;;;;;2.38;2.17;;;;;;;28.23;54.48;98816.13;2083121;28;20079;-49
2023/08/14 04:16:41;;;;;;;2.67;2.45;;;;;;;28.21;54.62;98810.13;2082496;28;20087;-50
2023/08/14 04:17:42;;;;;;;2.55;2.17;;;;;;;28.19;54.35;98812.28;2074089;28;20060;-48
2023/08/14 04:18:44;;;;;;;2.13;1.75;;;;;;;28.17;54.46;98809.00;2075196;28;20423;-48
2023/08/14 04:19:45;;;;;;;3.13;2.15;;;;;;;28.16;53.97;98812.81;2074986;28;20049;-49
2023/08/14 04:20:47;;;;;;;2.90;2.63;;;;;;;28.17;53.85;98819.09;2080480;28;20443;-49
2023/08/14 04:21:49;;;;;;;5.22;2.13;;;;;;;28.16;53.85;98820.97;2078854;28;20044;-49
2023/08/14 04:22:50;;;;;;;2.13;1.90;;;;;;;28.12;53.82;98819.88;2075535;28;20544;-48
2023/08/14 04:23:52;;;;;;;1.95;1.83;;;;;;;28.13;53.60;98817.97;2082351;28;20053;-49
2023/08/14 04:24:57;;;;;;;3.75;2.67;;;;;;;28.15;53.18;98821.25;2082956;28;20138;-49
2023/08/14 04:25:58;;;;;;;2.80;2.05;;;;;;;28.15;54.02;98824.81;2079532;28;20053;-47
2023/08/14 04:27:00;;;;;;;6.72;2.33;;;;;;;28.14;53.61;98823.16;2082418;28;20041;-51
2023/08/14 04:28:01;;;;;;;3.17;1.80;;;;;;;28.13;53.67;98821.50;2082928;28;20052;-50
2023/08/14 04:29:06;;;;;;;3.83;2.13;;;;;;;28.15;53.54;98822.06;2082341;28;20211;-49
2023/08/14 04:30:08;;;;;;;7.53;2.60;;;;;;;28.16;53.76;98820.16;2082568;28;21078;-54
2023/08/14 04:31:11;;;;;;;8.57;2.95;;;;;;;28.16;53.73;98826.44;2083228;28;20429;-49
2023/08/14 04:32:12;;;;;;;5.57;2.10;;;;;;;28.17;54.14;98819.09;2082988;28;20075;-49
2023/08/14 04:33:12;;;;;;;2.58;1.88;;;;;;;28.14;53.98;98815.00;2083555;28;21011;-50
2023/08/14 04:34:14;;;;;;;5.10;2.05;;;;;;;28.19;53.70;98816.91;2083178;28;20045;-50
2023/08/14 04:35:15;;;;;;;3.45;1.88;;;;;;;28.21;53.87;98815.56;2082065;28;20424;-53
2023/08/14 04:36:17;;;;;;;2.25;1.98;;;;;;;28.20;54.27;98822.13;2082421;28;20055;-47
2023/08/14 04:37:18;;;;;;;5.53;1.70;;;;;;;28.12;54.92;98821.78;2080931;28;20125;-51
2023/08/14 04:38:19;;;;;;;3.92;2.63;;;;;;;28.07;54.87;98814.38;2083687;28;20176;-52
2023/08/14 04:39:20;;;;;;;2.88;2.22;;;;;;;28.10;54.87;98813.84;2082688;28;20083;-51
2023/08/14 04:40:22;;;;;;;7.88;2.60;;;;;;;28.12;55.07;98819.06;2081549;28;20102;-52
2023/08/14 04:41:23;;;;;;;4.30;2.47;;;;;;;28.15;55.03;98819.34;2082041;28;20264;-49
2023/08/14 04:42:25;;;;;;;2.78;1.88;;;;;;;28.13;54.68;98820.69;2078582;28;20514;-49
2023/08/14 04:43:25;;;;;;;2.90;2.40;;;;;;;28.07;55.07;98815.19;2072909;28;20076;-51
2023/08/14 04:44:27;;;;;;;4.00;2.80;;;;;;;28.08;54.56;98818.75;2075199;28;20045;-48
2023/08/14 04:45:28;;;;;;;5.78;1.90;;;;;;;28.07;54.09;98820.66;2075004;28;20042;-51
2023/08/14 04:46:32;;;;;;;3.88;2.50;;;;;;;28.09;54.09;98825.03;2076070;28;23296;-51
2023/08/14 04:47:33;;;;;;;2.30;1.95;;;;;;;28.04;54.04;98821.19;2074644;28;20081;-48
2023/08/14 04:48:34;;;;;;;2.08;1.88;;;;;;;28.09;54.46;98823.13;2074130;28;20080;-51
2023/08/14 04:49:36;;;;;;;3.85;2.25;;;;;;;28.06;54.59;98829.09;2082350;28;20128;-49
2023/08/14 04:50:36;;;;;;;3.25;2.20;;;;;;;28.06;54.35;98826.38;2082753;28;20799;-53
2023/08/14 04:51:38;;;;;;;3.50;2.47;;;;;;;28.07;54.22;98825.28;2080632;28;20055;-49
2023/08/14 04:52:39;;;;;;;3.65;2.28;;;;;;;28.11;54.28;98828.31;2080321;28;20073;-51
2023/08/14 04:53:41;;;;;;;4.15;2.00;;;;;;;28.11;54.39;98831.88;2079344;28;20402;-53